Time;durP1;ratioP1;P1;durP2;ratioP2;P2;SDS_P1;SDS_P2;PMS_P1;PMS_P2;Temp;Humidity;BMP_temperature;BMP_pressure;BME280_temperature;BME280_humidity;BME280_pressure;Samples;Min_cycle;Max_cycle;Signal;HPM_P1;HPM_P2
2022/01/07 00:01:09;;;;;;;1.37;1.13;;;11.90;99.90;;;;;;6137350;23;20446;-67
2022/01/07 00:03:43;;;;;;;1.17;0.70;;;11.90;99.90;;;;;;6142332;23;20425;-68
2022/01/07 00:06:14;;;;;;;1.33;0.40;;;11.90;99.90;;;;;;6147739;23;20902;-67
2022/01/07 00:08:45;;;;;;;1.00;0.70;;;11.90;99.90;;;;;;6146971;23;20427;-67
2022/01/07 00:11:15;;;;;;;1.13;0.70;;;12.00;99.90;;;;;;6145244;23;20407;-67
2022/01/07 00:13:48;;;;;;;1.17;0.47;;;12.00;99.90;;;;;;6143791;23;20693;-67
2022/01/07 00:16:19;;;;;;;0.67;0.67;;;12.00;99.90;;;;;;6147640;23;20424;-67
2022/01/07 00:18:50;;;;;;;0.70;0.40;;;12.00;99.90;;;;;;6144315;23;20747;-66
2022/01/07 00:21:21;;;;;;;1.03;0.57;;;12.00;99.90;;;;;;6146074;23;20442;-67
2022/01/07 00:23:51;;;;;;;1.27;0.83;;;12.10;99.90;;;;;;6147891;23;20417;-67
2022/01/07 00:26:22;;;;;;;0.60;0.50;;;12.10;99.90;;;;;;6143620;23;20472;-66
2022/01/07 00:28:55;;;;;;;1.70;0.60;;;12.10;99.90;;;;;;6139938;23;20434;-66
2022/01/07 00:31:25;;;;;;;1.20;0.57;;;12.10;99.90;;;;;;6141696;23;20413;-65
2022/01/07 00:33:56;;;;;;;4.13;0.67;;;12.10;99.90;;;;;;6144902;23;20950;-65
2022/01/07 00:36:27;;;;;;;0.60;0.60;;;12.10;99.90;;;;;;6148214;23;20470;-64
2022/01/07 00:38:58;;;;;;;0.70;0.70;;;12.10;99.90;;;;;;6145223;23;20410;-66
2022/01/07 00:41:29;;;;;;;1.13;0.40;;;12.10;99.90;;;;;;6148388;23;20763;-64
2022/01/07 00:44:03;;;;;;;1.63;0.70;;;12.00;99.90;;;;;;6150776;23;20411;-66
2022/01/07 00:46:34;;;;;;;2.70;0.77;;;12.00;99.90;;;;;;6144560;23;21012;-65
2022/01/07 00:49:05;;;;;;;2.67;0.80;;;11.90;99.90;;;;;;6141221;23;20502;-66
2022/01/07 00:51:36;;;;;;;0.60;0.47;;;11.90;99.90;;;;;;6144266;23;20406;-66
2022/01/07 00:54:07;;;;;;;0.60;0.60;;;11.90;99.90;;;;;;6145031;23;21078;-67
2022/01/07 00:56:37;;;;;;;1.53;0.50;;;11.70;99.90;;;;;;6149329;23;20775;-65
2022/01/07 00:59:10;;;;;;;0.80;0.60;;;11.70;99.90;;;;;;6147809;23;20521;-66
2022/01/07 01:01:41;;;;;;;0.70;0.47;;;11.70;99.90;;;;;;6146904;23;20447;-65
2022/01/07 01:04:20;;;;;;;1.00;0.60;;;11.60;99.90;;;;;;6147285;23;20411;-65
2022/01/07 01:06:51;;;;;;;0.80;0.77;;;11.60;99.90;;;;;;6147190;23;20498;-67
2022/01/07 01:09:22;;;;;;;0.60;0.60;;;11.60;99.90;;;;;;6149332;23;20419;-65
2022/01/07 01:11:53;;;;;;;0.80;0.50;;;11.60;99.90;;;;;;6150516;23;20518;-64
2022/01/07 01:14:25;;;;;;;1.17;0.50;;;11.60;99.90;;;;;;6147000;23;20411;-67
2022/01/07 01:16:56;;;;;;;0.83;0.60;;;11.60;99.90;;;;;;6144474;23;20410;-67
2022/01/07 01:19:28;;;;;;;0.60;0.60;;;11.70;99.90;;;;;;6150643;23;20768;-65
2022/01/07 01:21:59;;;;;;;0.63;0.50;;;11.70;99.90;;;;;;6152012;23;20895;-65
2022/01/07 01:24:29;;;;;;;0.50;0.40;;;11.70;99.90;;;;;;6142447;23;20411;-65
2022/01/07 01:27:00;;;;;;;0.80;0.60;;;11.70;99.90;;;;;;6144777;23;20530;-66
2022/01/07 01:29:33;;;;;;;1.27;0.50;;;11.70;99.90;;;;;;6147680;23;20411;-66
2022/01/07 01:32:05;;;;;;;0.87;0.60;;;11.70;99.90;;;;;;6144680;23;20406;-65
2022/01/07 01:34:36;;;;;;;1.00;0.60;;;11.70;99.90;;;;;;6150952;23;20438;-65
2022/01/07 01:37:06;;;;;;;1.07;0.70;;;11.70;99.90;;;;;;6144255;23;20418;-65
2022/01/07 01:39:37;;;;;;;1.07;0.57;;;11.70;99.90;;;;;;6146655;23;20480;-65
2022/01/07 01:42:09;;;;;;;2.10;0.60;;;11.70;99.90;;;;;;6147336;23;20446;-65
2022/01/07 01:44:42;;;;;;;0.57;0.43;;;11.70;99.90;;;;;;6143326;23;20426;-65
2022/01/07 01:47:12;;;;;;;0.70;0.60;;;11.70;99.90;;;;;;6142392;23;20410;-64
2022/01/07 01:49:43;;;;;;;0.60;0.60;;;11.70;99.90;;;;;;6143648;23;20510;-65
2022/01/07 01:52:14;;;;;;;1.13;0.80;;;11.70;99.90;;;;;;6145261;23;20410;-65
2022/01/07 01:54:45;;;;;;;0.77;0.47;;;11.70;99.90;;;;;;6147196;23;20411;-65
2022/01/07 01:57:16;;;;;;;1.10;0.57;;;11.60;99.90;;;;;;6150791;23;20415;-64
2022/01/07 01:59:49;;;;;;;0.50;0.50;;;11.70;99.90;;;;;;6148162;23;20538;-65
2022/01/07 02:02:19;;;;;;;1.17;0.97;;;11.70;99.90;;;;;;6142958;23;20529;-65
2022/01/07 02:04:50;;;;;;;0.73;0.73;;;11.70;99.90;;;;;;6145220;23;20521;-65
2022/01/07 02:07:25;;;;;;;0.70;0.60;;;11.70;99.90;;;;;;6149666;23;20912;-70
2022/01/07 02:09:57;;;;;;;0.93;0.60;;;11.70;99.90;;;;;;6148921;23;20410;-71
2022/01/07 02:12:28;;;;;;;0.50;0.50;;;11.70;99.90;;;;;;6150266;23;20418;-71
2022/01/07 02:15:00;;;;;;;1.43;0.97;;;11.70;99.90;;;;;;6149431;23;20411;-69
2022/01/07 02:17:31;;;;;;;1.80;0.90;;;11.70;99.90;;;;;;6150310;23;20750;-72
2022/01/07 02:20:05;;;;;;;1.10;0.70;;;11.70;99.90;;;;;;6147939;23;20922;-71
2022/01/07 02:22:36;;;;;;;2.67;1.00;;;11.70;99.90;;;;;;6148759;23;20413;-70
2022/01/07 02:25:07;;;;;;;0.97;0.77;;;11.70;99.90;;;;;;6151330;23;20410;-70
2022/01/07 02:27:40;;;;;;;0.73;0.70;;;11.70;99.90;;;;;;6145934;23;20458;-69
2022/01/07 02:30:15;;;;;;;0.90;0.80;;;11.80;99.90;;;;;;6148513;23;20410;-69
2022/01/07 02:32:46;;;;;;;1.90;1.40;;;11.80;99.90;;;;;;6148855;23;20486;-67
2022/01/07 02:35:20;;;;;;;1.23;1.13;;;11.70;99.90;;;;;;6147672;23;20689;-69
2022/01/07 02:37:51;;;;;;;0.70;0.60;;;11.70;99.90;;;;;;6147295;23;20432;-70
2022/01/07 02:40:22;;;;;;;1.40;1.30;;;11.70;99.90;;;;;;6146538;23;20413;-66
2022/01/07 02:42:53;;;;;;;1.07;0.90;;;11.70;99.90;;;;;;6150776;23;20406;-67
2022/01/07 02:45:24;;;;;;;1.07;0.90;;;11.80;99.90;;;;;;6147942;23;20406;-67
2022/01/07 02:47:57;;;;;;;1.70;1.20;;;11.70;99.90;;;;;;6146989;23;20417;-67
2022/01/07 02:50:33;;;;;;;1.63;0.80;;;11.70;99.90;;;;;;6147466;23;20432;-67
2022/01/07 02:53:05;;;;;;;1.47;0.73;;;11.80;99.90;;;;;;6151133;23;20413;-67
2022/01/07 02:55:37;;;;;;;1.50;0.80;;;11.80;99.90;;;;;;6148714;23;20497;-72
2022/01/07 02:58:09;;;;;;;0.80;0.77;;;11.80;99.90;;;;;;6147259;23;20407;-65
2022/01/07 03:00:40;;;;;;;0.90;0.87;;;11.80;99.90;;;;;;6149051;23;20406;-66
2022/01/07 03:03:11;;;;;;;1.30;1.20;;;11.80;99.90;;;;;;6149242;23;20505;-66
2022/01/07 03:05:43;;;;;;;1.50;1.40;;;11.80;99.90;;;;;;6148500;23;20931;-67
2022/01/07 03:08:14;;;;;;;1.43;1.10;;;11.80;99.90;;;;;;6146501;23;20421;-67
2022/01/07 03:10:45;;;;;;;1.70;1.00;;;11.80;99.90;;;;;;6144514;23;20411;-67
2022/01/07 03:13:16;;;;;;;2.20;1.40;;;11.80;99.90;;;;;;6147981;23;20736;-68
2022/01/07 03:15:46;;;;;;;1.63;1.10;;;11.80;99.90;;;;;;6146696;23;20934;-65
2022/01/07 03:18:17;;;;;;;1.43;1.10;;;11.80;99.90;;;;;;6148003;23;20414;-69
2022/01/07 03:20:50;;;;;;;1.07;0.97;;;11.80;99.90;;;;;;6144423;23;20938;-69
2022/01/07 03:23:21;;;;;;;0.83;0.77;;;11.80;99.90;;;;;;6150812;23;20787;-69
2022/01/07 03:25:52;;;;;;;1.60;1.50;;;11.80;99.90;;;;;;6146804;23;20426;-69
2022/01/07 03:28:23;;;;;;;0.93;0.90;;;11.90;99.90;;;;;;6148048;23;20445;-69
2022/01/07 03:30:53;;;;;;;1.40;0.77;;;11.90;99.90;;;;;;6146973;23;21262;-69
2022/01/07 03:33:25;;;;;;;1.23;0.77;;;11.90;99.90;;;;;;6147594;23;20436;-69
2022/01/07 03:35:57;;;;;;;1.20;1.03;;;11.80;99.90;;;;;;6148698;23;20787;-69
2022/01/07 03:38:28;;;;;;;1.23;0.90;;;11.90;99.90;;;;;;6146348;23;20411;-69
2022/01/07 03:40:59;;;;;;;1.07;0.77;;;11.80;99.90;;;;;;6147006;23;20739;-70
2022/01/07 03:43:30;;;;;;;1.10;0.67;;;11.90;99.90;;;;;;6141135;23;20411;-70
2022/01/07 03:46:01;;;;;;;0.60;0.57;;;11.90;99.90;;;;;;6146323;23;20415;-69
2022/01/07 03:48:32;;;;;;;0.60;0.50;;;11.90;99.90;;;;;;6146076;23;20427;-69
2022/01/07 03:51:04;;;;;;;0.80;0.73;;;11.90;99.90;;;;;;6148649;23;20421;-69
2022/01/07 03:53:35;;;;;;;0.90;0.70;;;11.90;99.90;;;;;;6151860;23;20429;-68
2022/01/07 03:56:06;;;;;;;0.63;0.60;;;11.90;99.90;;;;;;6150726;23;20807;-69
2022/01/07 03:58:37;;;;;;;0.83;0.70;;;11.90;99.90;;;;;;6149287;23;20414;-68
2022/01/07 04:01:10;;;;;;;2.63;0.70;;;11.90;99.90;;;;;;6148784;23;20416;-73
2022/01/07 04:03:41;;;;;;;0.83;0.67;;;11.90;99.90;;;;;;6145260;23;20460;-70
2022/01/07 04:06:17;;;;;;;0.90;0.73;;;11.90;99.90;;;;;;6148529;23;20512;-71
2022/01/07 04:08:49;;;;;;;0.77;0.57;;;11.90;99.90;;;;;;6147327;23;20497;-70
2022/01/07 04:11:20;;;;;;;0.80;0.80;;;11.90;99.90;;;;;;6149917;23;20888;-71
2022/01/07 04:13:51;;;;;;;0.63;0.43;;;12.00;99.90;;;;;;6143422;23;20415;-71
2022/01/07 04:16:21;;;;;;;0.50;0.40;;;11.90;99.90;;;;;;6148240;23;20433;-72
2022/01/07 04:18:52;;;;;;;0.53;0.53;;;11.90;99.90;;;;;;6147172;23;20781;-70
2022/01/07 04:46:05;;;;;;;0.70;0.40;;;11.80;99.90;;;;;;6063633;23;20502;-73
2022/01/07 04:48:37;;;;;;;3.80;0.80;;;11.80;99.90;;;;;;6143705;23;20422;-72
2022/01/07 04:51:07;;;;;;;1.47;0.47;;;11.80;99.90;;;;;;6144796;23;20436;-72
2022/01/07 04:53:38;;;;;;;0.70;0.50;;;11.80;99.90;;;;;;6146601;23;20411;-71
2022/01/07 04:56:09;;;;;;;0.50;0.50;;;11.80;99.90;;;;;;6151582;23;20753;-71
2022/01/07 04:58:40;;;;;;;0.70;0.70;;;11.70;99.90;;;;;;6148388;23;20425;-72
2022/01/07 05:01:13;;;;;;;0.50;0.50;;;11.60;99.90;;;;;;6150777;23;20419;-72
2022/01/07 05:03:44;;;;;;;0.97;0.70;;;11.60;99.90;;;;;;6145506;23;20485;-70
2022/01/07 05:06:43;;;;;;;0.93;0.50;;;11.50;99.90;;;;;;6148552;23;20503;-71
2022/01/07 05:09:08;;;;;;;1.27;0.53;;;11.50;99.90;;;;;;6147572;23;20818;-70
2022/01/07 05:11:39;;;;;;;0.73;0.67;;;11.50;99.90;;;;;;6149094;23;20411;-72
2022/01/07 05:14:20;;;;;;;0.57;0.50;;;11.40;99.90;;;;;;6144425;23;20411;-73
2022/01/07 05:16:56;;;;;;;0.80;0.60;;;11.40;99.90;;;;;;6146479;23;20410;-71
2022/01/07 05:19:26;;;;;;;1.13;0.40;;;11.40;99.90;;;;;;6149734;23;20879;-72
2022/01/07 05:21:57;;;;;;;1.30;0.50;;;11.40;99.90;;;;;;6146978;23;20451;-71
2022/01/07 05:24:28;;;;;;;3.27;0.63;;;11.30;99.90;;;;;;6148959;23;20414;-71
2022/01/07 05:27:02;;;;;;;3.30;0.80;;;11.30;99.90;;;;;;6151117;23;20421;-71
2022/01/07 05:29:38;;;;;;;1.13;0.43;;;11.30;99.90;;;;;;6148407;23;20477;-70
2022/01/07 05:32:12;;;;;;;0.80;0.53;;;11.20;99.90;;;;;;6147654;23;20433;-73
2022/01/07 05:34:42;;;;;;;0.80;0.50;;;11.10;99.90;;;;;;6147774;23;20415;-72
2022/01/07 05:37:13;;;;;;;0.90;0.33;;;11.10;99.90;;;;;;6151315;23;20410;-72
2022/01/07 05:39:48;;;;;;;4.30;0.70;;;11.00;99.90;;;;;;6146410;23;20434;-71
2022/01/07 05:42:19;;;;;;;0.90;0.60;;;11.10;99.90;;;;;;6141880;23;20456;-71
2022/01/07 05:44:50;;;;;;;0.53;0.40;;;11.00;99.90;;;;;;6150581;23;20494;-71
2022/01/07 05:47:22;;;;;;;1.00;0.53;;;11.00;99.90;;;;;;6146846;23;20493;-71
2022/01/07 05:49:53;;;;;;;1.20;0.53;;;11.00;99.90;;;;;;6145753;23;20417;-71
2022/01/07 05:52:24;;;;;;;0.57;0.50;;;10.90;99.90;;;;;;6149234;23;20408;-70
2022/01/07 05:54:55;;;;;;;0.50;0.40;;;10.90;99.90;;;;;;6150805;23;20501;-70
2022/01/07 05:57:27;;;;;;;2.73;1.90;;;11.00;99.90;;;;;;6149431;23;20933;-72
2022/01/07 05:59:58;;;;;;;1.03;0.50;;;11.00;99.90;;;;;;6146581;23;20919;-72
2022/01/07 06:02:31;;;;;;;0.57;0.57;;;11.00;99.90;;;;;;6148398;23;20443;-71
2022/01/07 06:05:02;;;;;;;0.60;0.53;;;11.00;99.90;;;;;;6149471;23;20426;-71
2022/01/07 06:07:33;;;;;;;0.50;0.50;;;11.00;99.90;;;;;;6149368;23;20845;-71
2022/01/07 06:10:03;;;;;;;0.70;0.50;;;10.90;99.90;;;;;;6146708;23;20419;-70
2022/01/07 06:12:35;;;;;;;1.23;0.53;;;11.00;99.90;;;;;;6149462;23;20493;-66
2022/01/07 06:15:06;;;;;;;1.10;0.40;;;11.00;99.90;;;;;;6150480;23;20966;-73
2022/01/07 06:17:39;;;;;;;0.97;0.90;;;11.00;99.90;;;;;;6147762;23;20428;-71
2022/01/07 06:20:11;;;;;;;0.50;0.40;;;11.00;99.90;;;;;;6149162;23;20437;-72
2022/01/07 06:22:42;;;;;;;0.53;0.53;;;11.00;99.90;;;;;;6149192;23;20442;-71
2022/01/07 06:25:14;;;;;;;0.60;0.40;;;11.10;99.90;;;;;;6150655;23;20415;-70
2022/01/07 06:27:44;;;;;;;0.90;0.60;;;11.10;99.90;;;;;;6148920;23;20445;-70
2022/01/07 06:30:15;;;;;;;1.63;0.57;;;11.10;99.90;;;;;;6148435;23;20901;-70
2022/01/07 06:32:48;;;;;;;0.50;0.50;;;11.20;99.90;;;;;;6148313;23;20410;-71
2022/01/07 06:35:19;;;;;;;0.57;0.40;;;11.20;99.90;;;;;;6146551;23;20433;-70
2022/01/07 06:37:50;;;;;;;0.60;0.53;;;11.20;99.90;;;;;;6150536;23;20418;-71
2022/01/07 06:40:21;;;;;;;0.63;0.57;;;11.20;99.90;;;;;;6146851;23;20411;-73
2022/01/07 06:42:51;;;;;;;0.37;0.30;;;11.20;99.90;;;;;;6150577;23;20448;-71
2022/01/07 06:45:22;;;;;;;1.03;0.40;;;11.10;99.90;;;;;;6148282;23;20410;-71
2022/01/07 06:47:55;;;;;;;0.90;0.30;;;11.10;99.90;;;;;;6149401;23;20923;-72
2022/01/07 06:50:26;;;;;;;0.90;0.60;;;11.10;99.90;;;;;;6147306;23;20411;-71
2022/01/07 06:52:56;;;;;;;0.40;0.40;;;11.10;99.90;;;;;;6146283;23;20407;-70
2022/01/07 06:55:43;;;;;;;0.60;0.40;;;11.00;99.90;;;;;;6148398;23;20415;-71
2022/01/07 06:58:14;;;;;;;1.37;0.50;;;11.00;99.90;;;;;;6148664;23;20415;-71
2022/01/07 07:00:45;;;;;;;0.97;0.50;;;10.90;99.90;;;;;;6148673;23;20415;-72
2022/01/07 07:03:18;;;;;;;0.50;0.50;;;10.90;99.90;;;;;;6146012;23;20446;-71
2022/01/07 07:05:48;;;;;;;1.17;0.40;;;10.90;99.90;;;;;;6150820;23;20410;-72
2022/01/07 07:08:19;;;;;;;0.70;0.60;;;10.90;99.90;;;;;;6148528;23;20426;-71
2022/01/07 07:10:50;;;;;;;0.73;0.40;;;10.90;99.90;;;;;;6146324;23;20410;-71
2022/01/07 07:13:21;;;;;;;0.50;0.50;;;10.90;99.90;;;;;;6148127;23;20416;-70
2022/01/07 07:15:52;;;;;;;1.00;0.70;;;10.90;99.90;;;;;;6150547;23;20466;-70
2022/01/07 07:18:24;;;;;;;0.60;0.40;;;10.90;99.90;;;;;;6147514;23;20414;-72
2022/01/07 07:20:55;;;;;;;0.70;0.50;;;10.90;99.90;;;;;;6147796;23;20502;-70
2022/01/07 07:23:26;;;;;;;0.70;0.60;;;10.90;99.90;;;;;;6147774;23;20442;-71
2022/01/07 07:25:57;;;;;;;0.50;0.30;;;11.00;99.90;;;;;;6150612;23;20414;-71
2022/01/07 07:28:27;;;;;;;0.40;0.40;;;11.00;99.90;;;;;;6151806;23;20434;-71
2022/01/07 07:31:00;;;;;;;0.83;0.40;;;11.00;99.90;;;;;;6148777;23;20438;-71
2022/01/07 07:33:54;;;;;;;2.20;0.50;;;11.00;99.90;;;;;;6145016;23;20417;-70
2022/01/07 07:36:33;;;;;;;1.03;0.63;;;10.90;99.90;;;;;;6150373;23;20506;-71
2022/01/07 07:39:06;;;;;;;1.00;0.60;;;10.80;99.90;;;;;;6148281;23;20414;-70
2022/01/07 07:41:39;;;;;;;0.90;0.50;;;10.80;99.90;;;;;;6150278;23;20418;-71
2022/01/07 07:44:11;;;;;;;1.80;0.70;;;10.70;99.90;;;;;;6151997;23;20442;-70
2022/01/07 07:46:42;;;;;;;1.10;0.73;;;10.60;99.90;;;;;;6149205;23;20701;-71
2022/01/07 07:49:15;;;;;;;0.82;0.50;;;10.60;99.90;;;;;;6151203;23;20418;-72
2022/01/07 07:51:46;;;;;;;0.63;0.57;;;10.60;99.90;;;;;;6150414;23;20186;-71
2022/01/07 07:54:17;;;;;;;2.33;0.40;;;10.50;99.90;;;;;;6149857;23;20719;-71
2022/01/07 07:56:48;;;;;;;1.03;0.60;;;10.50;99.90;;;;;;6150318;23;20425;-71
2022/01/07 07:59:20;;;;;;;1.27;0.40;;;10.60;99.90;;;;;;6150180;23;20410;-73
2022/01/07 08:01:51;;;;;;;1.00;0.50;;;10.50;99.90;;;;;;6150409;23;20420;-71
2022/01/07 08:04:24;;;;;;;0.70;0.60;;;10.50;99.90;;;;;;6150750;23;20458;-72
2022/01/07 08:06:54;;;;;;;0.50;0.40;;;10.50;99.90;;;;;;6150268;23;20510;-72
2022/01/07 08:09:26;;;;;;;1.00;0.50;;;10.50;99.90;;;;;;6147605;23;20415;-72
2022/01/07 08:12:05;;;;;;;0.90;0.90;;;10.50;99.90;;;;;;6152466;23;20923;-71
2022/01/07 08:17:23;;;;;;;0.50;0.50;;;10.60;99.90;;;;;;6150257;23;20183;-71
2022/01/07 08:19:55;;;;;;;0.60;0.50;;;10.50;99.90;;;;;;6148831;23;20198;-71
2022/01/07 08:22:26;;;;;;;0.50;0.40;;;10.50;99.90;;;;;;6150273;23;20424;-70
2022/01/07 08:24:57;;;;;;;0.60;0.60;;;10.40;99.90;;;;;;6146997;23;20442;-71
2022/01/07 08:27:28;;;;;;;1.27;0.57;;;10.40;99.90;;;;;;6151950;23;20454;-71
2022/01/07 08:30:13;;;;;;;1.80;0.80;;;10.40;99.90;;;;;;6149377;23;20438;-70
2022/01/07 08:35:36;;;;;;;0.60;0.60;;;10.30;99.90;;;;;;6150726;23;20587;-70
2022/01/07 08:38:07;;;;;;;1.37;0.73;;;10.30;99.90;;;;;;6150257;23;20197;-70
2022/01/07 08:40:38;;;;;;;0.68;0.68;;;10.20;99.90;;;;;;6148508;23;20439;-71
2022/01/07 08:43:10;;;;;;;0.60;0.50;;;10.20;99.90;;;;;;6149981;23;20271;-72
2022/01/07 08:45:44;;;;;;;0.70;0.70;;;10.10;99.90;;;;;;6151855;23;20278;-71
2022/01/07 08:48:15;;;;;;;0.70;0.63;;;10.10;99.90;;;;;;6149265;23;20411;-72
2022/01/07 08:50:47;;;;;;;1.35;0.77;;;10.10;99.90;;;;;;6147556;23;20425;-70
2022/01/07 08:53:18;;;;;;;1.00;0.70;;;10.00;99.90;;;;;;6147294;23;20466;-70
2022/01/07 08:55:49;;;;;;;1.70;0.70;;;10.00;99.90;;;;;;6151451;23;20406;-70
2022/01/07 08:58:20;;;;;;;1.03;0.60;;;10.00;99.90;;;;;;6149610;23;20417;-70
2022/01/07 09:00:51;;;;;;;2.67;0.90;;;10.00;99.90;;;;;;6149157;23;20414;-70
2022/01/07 09:03:22;;;;;;;2.13;0.60;;;10.00;99.90;;;;;;6148555;23;20184;-69
2022/01/07 09:05:54;;;;;;;1.37;1.03;;;10.00;99.90;;;;;;6149332;23;20443;-69
2022/01/07 09:08:25;;;;;;;0.50;0.50;;;10.00;99.90;;;;;;6151369;23;20863;-70
2022/01/07 09:10:56;;;;;;;1.47;1.00;;;10.00;99.90;;;;;;6151426;23;20184;-70
2022/01/07 09:13:27;;;;;;;1.10;1.03;;;10.00;99.90;;;;;;6149125;23;20411;-70
2022/01/07 09:15:58;;;;;;;1.13;1.00;;;10.00;99.90;;;;;;6149546;23;20407;-70
2022/01/07 09:18:31;;;;;;;1.95;1.33;;;10.00;99.90;;;;;;6146131;23;20410;-70
2022/01/07 09:21:04;;;;;;;0.70;0.70;;;9.90;99.90;;;;;;6147446;23;20662;-70
2022/01/07 09:23:34;;;;;;;0.87;0.87;;;9.90;99.90;;;;;;6151148;23;20193;-70
2022/01/07 09:26:05;;;;;;;0.70;0.60;;;9.90;99.90;;;;;;6149514;23;20442;-70
2022/01/07 09:28:36;;;;;;;0.60;0.60;;;9.90;99.90;;;;;;6150729;23;20446;-70
2022/01/07 09:31:07;;;;;;;1.02;0.75;;;9.90;99.90;;;;;;6149554;23;20411;-70
2022/01/07 09:33:38;;;;;;;0.70;0.70;;;9.90;99.90;;;;;;6149810;23;20688;-70
2022/01/07 09:36:30;;;;;;;0.50;0.50;;;9.90;99.90;;;;;;6149257;23;20187;-71
2022/01/07 09:39:01;;;;;;;0.95;0.75;;;9.90;99.90;;;;;;6149214;23;20293;-70
2022/01/07 09:41:32;;;;;;;0.47;0.47;;;9.90;99.90;;;;;;6149661;23;20187;-70
2022/01/07 09:44:03;;;;;;;0.82;0.82;;;9.90;99.90;;;;;;6151106;23;20443;-70
2022/01/07 09:46:34;;;;;;;0.52;0.38;;;9.90;99.90;;;;;;6147030;23;20290;-69
2022/01/07 09:49:05;;;;;;;0.50;0.50;;;9.90;99.90;;;;;;6147856;23;20545;-69
2022/01/07 09:51:39;;;;;;;0.60;0.60;;;9.90;99.90;;;;;;6149029;23;20285;-69
2022/01/07 09:54:10;;;;;;;0.90;0.50;;;9.90;99.90;;;;;;6149122;23;20493;-69
2022/01/07 09:56:42;;;;;;;1.67;1.00;;;10.00;99.90;;;;;;6152015;23;20417;-70
2022/01/07 09:59:13;;;;;;;0.60;0.47;;;9.90;99.90;;;;;;6149437;23;20310;-69
2022/01/07 10:01:57;;;;;;;0.40;0.40;;;10.00;99.90;;;;;;6149318;23;20493;-70
2022/01/07 10:04:30;;;;;;;0.60;0.60;;;9.90;99.90;;;;;;6147599;23;20443;-69
2022/01/07 10:07:21;;;;;;;1.90;0.70;;;9.90;99.90;;;;;;6149254;23;20499;-70
2022/01/07 10:10:03;;;;;;;1.00;0.73;;;9.90;99.90;;;;;;6148712;23;20419;-69
2022/01/07 10:12:35;;;;;;;0.57;0.40;;;9.90;99.90;;;;;;6149941;23;20183;-69
2022/01/07 10:15:16;;;;;;;0.53;0.53;;;10.00;99.90;;;;;;6148564;23;21083;-70
2022/01/07 10:18:00;;;;;;;0.50;0.40;;;10.00;99.90;;;;;;6148838;23;20418;-70
2022/01/07 10:20:34;;;;;;;0.60;0.47;;;10.00;99.90;;;;;;6149109;23;20421;-69
2022/01/07 10:23:08;;;;;;;0.40;0.37;;;10.00;99.90;;;;;;6151315;23;20415;-70
2022/01/07 10:25:41;;;;;;;2.60;0.60;;;10.00;99.90;;;;;;6148921;23;20446;-69
2022/01/07 10:28:15;;;;;;;0.60;0.60;;;10.00;99.90;;;;;;6148839;23;20891;-69
2022/01/07 10:30:48;;;;;;;1.07;0.60;;;10.00;99.90;;;;;;6150599;23;20411;-69
2022/01/07 10:33:24;;;;;;;0.55;0.55;;;10.00;99.90;;;;;;6147850;23;20411;-70
2022/01/07 10:35:56;;;;;;;0.50;0.40;;;10.00;99.90;;;;;;6148352;23;20183;-70
2022/01/07 10:38:30;;;;;;;1.40;0.57;;;10.00;99.90;;;;;;6150324;23;20411;-70
2022/01/07 10:41:01;;;;;;;0.60;0.52;;;10.00;99.90;;;;;;6149052;23;20282;-70
2022/01/07 10:43:34;;;;;;;0.40;0.40;;;10.00;99.90;;;;;;6150273;23;20191;-69
2022/01/07 10:46:19;;;;;;;0.60;0.50;;;10.00;99.90;;;;;;6148442;23;20246;-69
2022/01/07 10:48:53;;;;;;;0.50;0.50;;;10.00;99.90;;;;;;6145260;23;20410;-70
2022/01/07 10:51:26;;;;;;;0.43;0.43;;;10.00;99.90;;;;;;6148643;23;20950;-69
2022/01/07 10:53:59;;;;;;;0.40;0.40;;;10.00;99.90;;;;;;6149892;23;20414;-69
2022/01/07 10:56:36;;;;;;;0.50;0.50;;;10.00;99.90;;;;;;6148381;23;20408;-69
2022/01/07 10:59:08;;;;;;;1.03;0.43;;;10.10;99.90;;;;;;6149070;23;20501;-69
2022/01/07 11:01:44;;;;;;;0.60;0.50;;;10.00;99.90;;;;;;6144765;23;20729;-69
2022/01/07 11:04:18;;;;;;;0.50;0.43;;;10.10;99.90;;;;;;6149559;23;20187;-69
2022/01/07 11:06:51;;;;;;;0.63;0.63;;;10.10;99.90;;;;;;6148061;23;20199;-71
2022/01/07 11:09:24;;;;;;;1.57;0.57;;;10.10;99.90;;;;;;6148334;23;20426;-71
2022/01/07 11:11:56;;;;;;;0.40;0.30;;;10.10;99.90;;;;;;6151100;23;20990;-69
2022/01/07 11:14:28;;;;;;;0.60;0.60;;;10.10;99.90;;;;;;6149021;23;20990;-69
2022/01/07 11:17:04;;;;;;;0.53;0.40;;;10.10;99.90;;;;;;6148801;23;20657;-69
2022/01/07 11:19:37;;;;;;;0.80;0.30;;;10.10;99.90;;;;;;6148819;23;20521;-66
2022/01/07 11:22:11;;;;;;;2.27;0.53;;;10.10;99.90;;;;;;6149246;23;20464;-66
2022/01/07 11:24:45;;;;;;;0.30;0.30;;;10.20;99.90;;;;;;6148185;23;20411;-65
2022/01/07 11:27:18;;;;;;;2.00;0.50;;;10.10;99.90;;;;;;6150413;23;20416;-66
2022/01/07 11:29:56;;;;;;;0.63;0.40;;;10.10;99.90;;;;;;6146130;23;20430;-67
2022/01/07 11:32:45;;;;;;;0.70;0.30;;;10.10;99.90;;;;;;6146736;23;20407;-66
2022/01/07 11:35:48;;;;;;;0.80;0.50;;;10.20;99.90;;;;;;6145371;23;20429;-65
2022/01/07 11:38:35;;;;;;;0.50;0.38;;;10.20;99.90;;;;;;6150379;23;20517;-66
2022/01/07 11:41:24;;;;;;;1.27;0.50;;;10.20;99.90;;;;;;6145665;23;20187;-65
2022/01/07 11:43:54;;;;;;;0.70;0.30;;;10.20;99.90;;;;;;6144987;23;20410;-64
2022/01/07 11:46:33;;;;;;;0.90;0.30;;;10.30;99.90;;;;;;6149646;23;20456;-65
2022/01/07 11:49:28;;;;;;;1.40;0.40;;;10.30;99.90;;;;;;6146980;23;20419;-65
2022/01/07 11:51:59;;;;;;;1.23;0.37;;;10.30;99.90;;;;;;6146554;23;20205;-65
2022/01/07 11:54:29;;;;;;;1.08;0.45;;;10.30;99.90;;;;;;6148142;23;20420;-65
2022/01/07 11:57:12;;;;;;;0.30;0.20;;;10.30;99.90;;;;;;6144107;23;20194;-65
2022/01/07 11:59:52;;;;;;;0.50;0.30;;;10.40;99.90;;;;;;6149710;23;20485;-67
2022/01/07 12:02:23;;;;;;;0.50;0.30;;;10.40;99.90;;;;;;6144362;23;20411;-65
2022/01/07 12:04:54;;;;;;;0.30;0.20;;;10.40;99.90;;;;;;6146595;23;20414;-65
2022/01/07 12:07:48;;;;;;;0.40;0.20;;;10.40;99.90;;;;;;6148363;23;20654;-65
2022/01/07 12:10:19;;;;;;;0.50;0.20;;;10.50;99.90;;;;;;6149453;23;20883;-65
2022/01/07 12:12:59;;;;;;;0.80;0.30;;;10.50;99.90;;;;;;6151616;23;20438;-64
2022/01/07 12:15:30;;;;;;;0.40;0.27;;;10.50;99.90;;;;;;6149712;23;20415;-65
2022/01/07 12:18:10;;;;;;;0.40;0.20;;;10.50;99.90;;;;;;6150148;23;20411;-65
2022/01/07 12:20:52;;;;;;;0.33;0.20;;;10.60;99.90;;;;;;6147282;23;20189;-65
2022/01/07 12:23:24;;;;;;;0.30;0.30;;;10.60;99.90;;;;;;6151564;23;20465;-65
2022/01/07 12:26:01;;;;;;;0.40;0.20;;;10.70;99.90;;;;;;6147782;23;20448;-66
2022/01/07 12:28:37;;;;;;;0.40;0.20;;;10.70;99.90;;;;;;6147541;23;20638;-65
2022/01/07 12:31:09;;;;;;;0.60;0.20;;;10.70;99.90;;;;;;6152452;23;20411;-65
2022/01/07 12:33:51;;;;;;;0.40;0.30;;;10.80;99.90;;;;;;6150635;23;20418;-65
2022/01/07 12:36:27;;;;;;;0.30;0.20;;;10.80;99.90;;;;;;6150067;23;20407;-66
2022/01/07 12:39:01;;;;;;;0.60;0.30;;;10.80;99.90;;;;;;6149562;23;20417;-66
2022/01/07 12:41:32;;;;;;;1.37;0.20;;;10.80;99.90;;;;;;6149896;23;20454;-66
2022/01/07 12:44:09;;;;;;;0.30;0.20;;;10.90;99.90;;;;;;6149588;23;20495;-66
2022/01/07 12:46:41;;;;;;;0.90;0.30;;;10.90;99.90;;;;;;6151658;23;20767;-65
2022/01/07 12:49:12;;;;;;;0.37;0.20;;;10.90;99.90;;;;;;6148272;23;20434;-66
2022/01/07 12:51:43;;;;;;;0.30;0.20;;;10.90;99.90;;;;;;6147329;23;20410;-65
2022/01/07 12:54:14;;;;;;;0.30;0.20;;;11.00;99.90;;;;;;6151253;23;20779;-66
2022/01/07 12:56:44;;;;;;;0.40;0.20;;;11.00;99.90;;;;;;6147639;23;20415;-66
2022/01/07 12:59:19;;;;;;;0.30;0.30;;;11.00;99.90;;;;;;6149384;23;20417;-66
2022/01/07 13:01:50;;;;;;;0.30;0.20;;;11.00;99.90;;;;;;6147666;23;20410;-66
2022/01/07 13:04:25;;;;;;;0.50;0.30;;;11.00;99.90;;;;;;6150295;23;20465;-65
2022/01/07 13:06:57;;;;;;;0.30;0.20;;;11.00;99.90;;;;;;6149402;23;20442;-66
2022/01/07 13:09:30;;;;;;;0.40;0.30;;;10.90;99.90;;;;;;6149475;23;20891;-66
2022/01/07 13:12:01;;;;;;;0.30;0.20;;;10.90;99.90;;;;;;6151682;23;20418;-66
2022/01/07 13:14:33;;;;;;;0.30;0.20;;;10.90;99.90;;;;;;6148966;23;20811;-66
2022/01/07 13:17:10;;;;;;;0.40;0.20;;;10.90;99.90;;;;;;6149493;23;20407;-66
2022/01/07 13:19:46;;;;;;;0.40;0.20;;;11.00;99.90;;;;;;6147761;23;20974;-66
2022/01/07 13:22:19;;;;;;;0.43;0.40;;;11.00;99.90;;;;;;6147499;23;20421;-66
2022/01/07 13:24:50;;;;;;;0.40;0.20;;;11.10;99.90;;;;;;6148364;23;20411;-66
2022/01/07 13:27:21;;;;;;;0.37;0.20;;;11.10;99.90;;;;;;6149719;23;20452;-66
2022/01/07 13:29:55;;;;;;;0.60;0.20;;;11.10;99.90;;;;;;6148505;23;20434;-66
2022/01/07 13:32:28;;;;;;;0.50;0.20;;;11.00;99.90;;;;;;6147815;23;20415;-65
2022/01/07 13:35:07;;;;;;;1.13;0.30;;;10.90;99.90;;;;;;6150164;23;20414;-65
2022/01/07 13:37:39;;;;;;;0.75;0.30;;;10.80;99.90;;;;;;6149340;23;20463;-66
2022/01/07 13:40:14;;;;;;;0.77;0.30;;;10.80;99.90;;;;;;6149351;23;20190;-65
2022/01/07 13:42:45;;;;;;;0.40;0.20;;;10.70;99.90;;;;;;6151409;23;20552;-65
2022/01/07 13:45:24;;;;;;;0.30;0.30;;;10.70;99.90;;;;;;6149308;23;20187;-65
2022/01/07 13:48:07;;;;;;;0.68;0.30;;;10.70;99.90;;;;;;6147158;23;21095;-65